Time;durP1;ratioP1;P1;durP2;ratioP2;P2;SDS_P1;SDS_P2;PMS_P1;PMS_P2;Temp;Humidity;BMP_temperature;BMP_pressure;BME280_temperature;BME280_humidity;BME280_pressure;Samples;Min_cycle;Max_cycle;Signal;HPM_P1;HPM_P2
2022/08/21 13:14:34;;;;;;;2.28;1.00;;;26.50;59.80;;;;;;5033115;23;20107;-78
2022/08/21 13:17:04;;;;;;;3.80;1.35;;;26.60;58.80;;;;;;4938125;28;20046;-77
2022/08/21 13:19:31;;;;;;;3.55;1.70;;;26.60;59.70;;;;;;4939092;28;20030;-77
2022/08/21 13:21:57;;;;;;;3.05;1.10;;;26.70;60.80;;;;;;4939819;28;20114;-73
2022/08/21 13:24:25;;;;;;;5.80;1.10;;;26.70;59.90;;;;;;4956858;28;20023;-75
2022/08/21 13:26:51;;;;;;;2.85;1.08;;;26.70;58.30;;;;;;4972029;23;20034;-72
2022/08/21 13:29:21;;;;;;;4.35;1.20;;;26.70;59.00;;;;;;4943610;28;20142;-71
2022/08/21 13:31:54;;;;;;;4.07;1.10;;;26.60;57.40;;;;;;4945677;28;20031;-73
2022/08/21 13:34:22;;;;;;;5.05;1.23;;;26.50;57.50;;;;;;4945788;28;20067;-72
2022/08/21 13:36:54;;;;;;;2.70;1.45;;;26.30;57.60;;;;;;4943920;28;20365;-72
2022/08/21 13:39:21;;;;;;;2.25;0.77;;;26.20;57.70;;;;;;4943768;28;20038;-72
2022/08/21 13:41:50;;;;;;;4.13;1.25;;;26.20;58.20;;;;;;4945208;28;20043;-73
2022/08/21 13:44:26;;;;;;;2.53;0.85;;;26.30;57.40;;;;;;4937504;28;20050;-73
2022/08/21 13:46:53;;;;;;;4.38;1.10;;;26.40;56.00;;;;;;4944061;28;20039;-73
2022/08/21 13:49:34;;;;;;;2.85;1.20;;;26.40;57.80;;;;;;4946044;28;20191;-73
2022/08/21 13:51:59;;;;;;;2.78;0.88;;;26.70;58.70;;;;;;4944268;28;20494;-75
2022/08/21 13:54:26;;;;;;;3.55;0.80;;;27.00;58.50;;;;;;4946392;28;20686;-72
2022/08/21 13:56:53;;;;;;;3.13;1.25;;;27.20;56.90;;;;;;4945054;28;20061;-71
2022/08/21 13:59:34;;;;;;;2.97;1.15;;;27.40;57.70;;;;;;4946231;28;20043;-73
2022/08/21 14:02:12;;;;;;;4.53;1.30;;;27.50;55.80;;;;;;4945030;28;20492;-75
2022/08/21 14:04:59;;;;;;;3.55;1.17;;;27.40;54.10;;;;;;4941978;28;20099;-73
2022/08/21 14:07:35;;;;;;;3.22;0.95;;;27.00;54.60;;;;;;4943594;28;20031;-72
2022/08/21 14:10:04;;;;;;;4.13;1.42;;;26.60;55.20;;;;;;4943600;28;20423;-74
2022/08/21 14:12:43;;;;;;;4.68;1.10;;;26.30;55.70;;;;;;4942987;28;20091;-71
2022/08/21 14:15:13;;;;;;;4.75;0.95;;;26.10;55.50;;;;;;4942925;28;20042;-71
2022/08/21 14:17:41;;;;;;;9.65;2.35;;;25.90;55.00;;;;;;4942725;28;20035;-71
2022/08/21 14:20:27;;;;;;;3.40;1.30;;;25.80;56.20;;;;;;4943266;28;20035;-73
2022/08/21 14:22:53;;;;;;;2.35;0.93;;;25.70;56.50;;;;;;4931281;29;20059;-71
2022/08/21 14:25:18;;;;;;;7.13;3.75;;;25.80;57.20;;;;;;4932202;29;20103;-72
2022/08/21 14:28:02;;;;;;;2.50;1.00;;;26.00;57.60;;;;;;4931069;29;20028;-72
2022/08/21 14:30:36;;;;;;;3.63;1.00;;;26.30;56.50;;;;;;4928842;29;20078;-71
2022/08/21 14:33:04;;;;;;;3.92;1.08;;;26.40;55.40;;;;;;4925703;29;20023;-71
2022/08/21 14:35:30;;;;;;;4.30;1.25;;;26.30;55.60;;;;;;4923940;29;20391;-71
2022/08/21 14:37:56;;;;;;;6.18;1.20;;;26.30;56.20;;;;;;4932098;29;20028;-73
2022/08/21 14:40:23;;;;;;;2.75;1.00;;;26.40;56.60;;;;;;4930764;29;20043;-73
2022/08/21 14:42:50;;;;;;;2.83;0.80;;;26.40;56.30;;;;;;4927534;29;20472;-71
2022/08/21 14:45:27;;;;;;;3.70;1.20;;;26.50;55.10;;;;;;4932021;29;20177;-72
2022/08/21 14:47:54;;;;;;;2.55;0.73;;;26.50;56.00;;;;;;4930710;29;20028;-70
2022/08/21 14:50:19;;;;;;;3.85;0.82;;;26.60;56.10;;;;;;4930876;29;20119;-74
2022/08/21 14:52:45;;;;;;;1.55;0.80;;;26.70;55.80;;;;;;4926186;29;20196;-72
2022/08/21 14:55:22;;;;;;;3.63;1.02;;;26.60;55.90;;;;;;4929597;29;20091;-72
2022/08/21 14:57:49;;;;;;;4.22;0.80;;;26.60;55.90;;;;;;4929851;29;20034;-72
2022/08/21 15:00:19;;;;;;;1.88;0.77;;;26.70;56.20;;;;;;4929615;29;20040;-73
2022/08/21 15:02:45;;;;;;;2.78;0.80;;;26.80;55.80;;;;;;4931097;29;20581;-72
2022/08/21 15:05:12;;;;;;;3.63;1.15;;;26.90;55.70;;;;;;4931159;29;20042;-72
2022/08/21 15:07:37;;;;;;;2.13;0.70;;;26.90;55.40;;;;;;4928504;29;20054;-72
2022/08/21 15:10:04;;;;;;;4.20;1.60;;;27.00;56.00;;;;;;4930207;29;20109;-72
2022/08/21 15:12:29;;;;;;;2.53;0.65;;;27.00;55.80;;;;;;4930567;29;20027;-72
2022/08/21 15:14:55;;;;;;;2.08;1.30;;;27.10;55.70;;;;;;4928124;29;20122;-72
2022/08/21 15:17:21;;;;;;;2.50;0.80;;;27.10;55.70;;;;;;4929045;29;20027;-72
2022/08/21 15:19:46;;;;;;;5.60;0.90;;;27.20;55.30;;;;;;4928855;29;20583;-72
2022/08/21 15:22:12;;;;;;;2.58;1.00;;;27.10;54.00;;;;;;4908926;29;20440;-72
2022/08/21 15:24:37;;;;;;;1.40;0.77;;;26.90;53.90;;;;;;4930765;29;20126;-71
2022/08/21 15:27:05;;;;;;;2.70;1.15;;;26.70;54.40;;;;;;4931162;29;20143;-70
2022/08/21 15:29:31;;;;;;;9.10;1.30;;;26.70;54.70;;;;;;4930836;29;20063;-73
2022/08/21 15:32:14;;;;;;;2.90;1.67;;;26.60;54.70;;;;;;4931038;29;20542;-72
2022/08/21 15:34:40;;;;;;;2.08;1.20;;;26.60;54.20;;;;;;4927585;29;20044;-71
2022/08/21 15:37:07;;;;;;;2.13;0.80;;;26.60;54.10;;;;;;4932221;29;20042;-71
2022/08/21 15:39:34;;;;;;;4.40;1.45;;;26.60;54.50;;;;;;4930333;29;20035;-72
2022/08/21 15:42:00;;;;;;;4.80;0.80;;;26.60;54.10;;;;;;4932354;29;20071;-72
2022/08/21 15:44:27;;;;;;;3.58;1.30;;;26.50;54.60;;;;;;4931103;29;20118;-72
2022/08/21 15:46:53;;;;;;;2.42;0.90;;;26.50;54.20;;;;;;4931510;29;20495;-72
2022/08/21 15:49:18;;;;;;;3.00;1.17;;;26.40;54.70;;;;;;4928171;29;20528;-71
2022/08/21 15:51:44;;;;;;;2.15;0.77;;;26.40;54.20;;;;;;4929469;29;20027;-71
2022/08/21 15:54:09;;;;;;;3.47;1.20;;;26.20;54.40;;;;;;4928813;29;20472;-72
2022/08/21 15:56:38;;;;;;;2.03;1.15;;;26.10;54.20;;;;;;4931502;29;20157;-72
2022/08/21 15:59:13;;;;;;;5.93;1.10;;;25.90;54.50;;;;;;4930916;29;20067;-71
2022/08/21 16:01:39;;;;;;;5.75;1.15;;;25.80;54.70;;;;;;4931516;29;20027;-73
2022/08/21 16:04:06;;;;;;;3.60;1.08;;;25.70;55.20;;;;;;4931345;29;20028;-73
2022/08/21 16:06:31;;;;;;;2.65;0.93;;;25.60;55.40;;;;;;4929755;29;20020;-73
2022/08/21 16:08:58;;;;;;;4.13;0.90;;;25.40;55.40;;;;;;4930181;29;20054;-73
2022/08/21 16:11:24;;;;;;;2.47;0.85;;;25.30;55.60;;;;;;4931661;29;20440;-72
2022/08/21 16:13:50;;;;;;;3.83;1.10;;;25.30;55.70;;;;;;4931905;29;20392;-72
2022/08/21 16:16:23;;;;;;;2.13;1.00;;;25.30;55.90;;;;;;4931963;29;20480;-72
2022/08/21 16:18:50;;;;;;;1.85;0.82;;;25.30;55.90;;;;;;4931236;29;20027;-72
2022/08/21 16:21:17;;;;;;;3.15;0.80;;;25.30;55.90;;;;;;4930669;29;20085;-72
2022/08/21 16:23:42;;;;;;;7.50;1.38;;;25.40;56.30;;;;;;4930338;29;20090;-73
2022/08/21 16:26:10;;;;;;;5.15;1.52;;;25.50;56.10;;;;;;4932016;29;20118;-72
2022/08/21 16:28:38;;;;;;;1.85;1.15;;;25.60;56.10;;;;;;4931389;29;20119;-72
2022/08/21 16:31:04;;;;;;;2.25;1.08;;;25.60;56.60;;;;;;4931383;29;20044;-72
2022/08/21 16:33:38;;;;;;;10.73;2.28;;;25.70;55.90;;;;;;4931867;29;20123;-72
2022/08/21 16:36:04;;;;;;;2.90;1.27;;;25.70;55.80;;;;;;4927550;29;20144;-73
2022/08/21 16:38:31;;;;;;;6.63;1.35;;;25.70;57.00;;;;;;4924021;29;20046;-74
2022/08/21 16:40:58;;;;;;;3.08;1.00;;;25.70;57.80;;;;;;4930022;29;20035;-74
2022/08/21 16:43:26;;;;;;;2.72;0.70;;;25.70;57.70;;;;;;4929912;29;20646;-74
2022/08/21 16:45:53;;;;;;;2.25;1.08;;;25.60;57.80;;;;;;4928561;29;20031;-74
2022/08/21 16:48:19;;;;;;;2.92;1.42;;;25.40;57.10;;;;;;4929238;29;20036;-75
2022/08/21 16:50:44;;;;;;;2.75;1.10;;;25.40;57.10;;;;;;4929370;29;20340;-75
2022/08/21 16:53:10;;;;;;;2.45;1.02;;;25.40;57.40;;;;;;4931263;29;20474;-74
2022/08/21 16:55:37;;;;;;;3.28;1.25;;;25.40;57.00;;;;;;4929353;29;20031;-75
2022/08/21 16:58:09;;;;;;;4.00;1.05;;;25.30;57.00;;;;;;4928722;29;20322;-75
2022/08/21 17:00:34;;;;;;;2.08;0.85;;;25.30;57.10;;;;;;4929139;29;20466;-74
2022/08/21 17:03:00;;;;;;;3.80;1.13;;;25.20;57.40;;;;;;4928984;29;20032;-73
2022/08/21 17:05:26;;;;;;;2.80;1.15;;;25.20;56.80;;;;;;4930067;29;20586;-73
2022/08/21 17:07:51;;;;;;;5.50;1.23;;;25.10;57.10;;;;;;4928728;29;20028;-73
2022/08/21 17:10:18;;;;;;;4.35;1.27;;;25.10;57.20;;;;;;4930106;29;20123;-74
2022/08/21 17:12:50;;;;;;;3.58;1.05;;;25.00;57.30;;;;;;4926720;29;20023;-72
2022/08/21 17:15:22;;;;;;;2.47;0.82;;;25.00;57.50;;;;;;4929187;29;20050;-74
2022/08/21 17:17:48;;;;;;;3.88;1.20;;;24.90;57.60;;;;;;4929018;29;20043;-74
2022/08/21 17:20:14;;;;;;;3.40;0.98;;;24.90;57.80;;;;;;4929568;29;20038;-74
2022/08/21 17:22:40;;;;;;;2.72;1.23;;;24.90;57.90;;;;;;4929985;29;20399;-74
2022/08/21 17:25:06;;;;;;;4.05;1.48;;;24.80;57.90;;;;;;4929773;29;20095;-74
2022/08/21 17:27:31;;;;;;;4.53;1.50;;;24.80;57.90;;;;;;4928969;29;20039;-73
2022/08/21 17:29:57;;;;;;;3.35;1.48;;;24.80;58.00;;;;;;4928358;29;20039;-73
2022/08/21 17:32:23;;;;;;;6.82;1.83;;;24.80;57.50;;;;;;4928151;29;20392;-74
2022/08/21 17:34:49;;;;;;;2.88;0.95;;;24.80;57.60;;;;;;4930661;29;20055;-74
2022/08/21 17:37:14;;;;;;;3.92;2.15;;;24.80;57.60;;;;;;4929292;29;20062;-74
2022/08/21 17:39:40;;;;;;;2.60;1.23;;;24.70;57.40;;;;;;4929844;29;20051;-74
2022/08/21 17:42:11;;;;;;;3.90;1.38;;;24.70;57.90;;;;;;4929950;29;20363;-74
2022/08/21 17:44:39;;;;;;;6.20;1.23;;;24.60;57.90;;;;;;4928702;29;20043;-74
2022/08/21 17:47:06;;;;;;;7.18;1.73;;;24.60;58.10;;;;;;4928410;29;20206;-74
2022/08/21 17:49:32;;;;;;;4.97;1.50;;;24.50;58.20;;;;;;4930129;29;20436;-74
2022/08/21 17:51:58;;;;;;;4.78;1.25;;;24.40;58.80;;;;;;4930397;29;20027;-74
2022/08/21 17:54:25;;;;;;;4.60;1.27;;;24.40;59.30;;;;;;4930999;29;20054;-75
2022/08/21 17:56:52;;;;;;;3.47;0.95;;;24.30;58.80;;;;;;4930326;29;20435;-73
2022/08/21 17:59:17;;;;;;;4.07;1.50;;;24.30;59.00;;;;;;4934479;29;20071;-73
2022/08/21 18:01:45;;;;;;;5.90;1.92;;;24.10;59.10;;;;;;4931161;29;20032;-73
2022/08/21 18:04:11;;;;;;;2.35;1.17;;;24.10;59.20;;;;;;4934088;29;20035;-74
2022/08/21 18:06:37;;;;;;;6.35;1.63;;;24.10;59.40;;;;;;4933370;29;20420;-73
2022/08/21 18:09:03;;;;;;;3.22;1.05;;;24.10;59.50;;;;;;4933469;29;20514;-73
2022/08/21 18:11:30;;;;;;;7.40;2.28;;;24.00;59.50;;;;;;4933206;29;20130;-73
2022/08/21 18:13:59;;;;;;;6.68;1.02;;;24.00;59.70;;;;;;4934259;29;20020;-73
2022/08/21 18:16:30;;;;;;;4.50;1.23;;;23.90;59.80;;;;;;4929887;29;20154;-72
2022/08/21 18:18:56;;;;;;;4.70;2.13;;;23.90;60.20;;;;;;4933861;29;20051;-73
2022/08/21 18:21:23;;;;;;;3.53;1.48;;;23.80;60.10;;;;;;4933543;29;20031;-72
2022/08/21 18:23:49;;;;;;;4.43;1.10;;;23.80;60.10;;;;;;4933005;29;20039;-71
2022/08/21 18:26:24;;;;;;;3.85;1.85;;;23.70;59.90;;;;;;4931632;29;20503;-72
2022/08/21 18:28:50;;;;;;;4.45;1.23;;;23.60;59.90;;;;;;4931700;29;20118;-72
2022/08/21 18:31:15;;;;;;;5.00;1.45;;;23.60;59.90;;;;;;4932502;29;20551;-72
2022/08/21 18:33:41;;;;;;;4.35;1.35;;;23.50;60.20;;;;;;4930987;29;20111;-72
2022/08/21 18:36:07;;;;;;;4.35;1.35;;;23.40;60.40;;;;;;4932951;29;20382;-73
2022/08/21 18:38:34;;;;;;;4.60;1.60;;;23.30;60.30;;;;;;4932566;29;20437;-73
2022/08/21 18:41:01;;;;;;;6.60;2.13;;;23.30;60.60;;;;;;4932984;29;20032;-72
2022/08/21 18:43:26;;;;;;;7.55;2.47;;;23.20;60.70;;;;;;4932848;29;20031;-72
2022/08/21 18:45:52;;;;;;;3.50;1.80;;;23.10;60.90;;;;;;4932884;29;20028;-73
2022/08/21 18:48:18;;;;;;;5.35;2.28;;;23.10;61.00;;;;;;4933514;29;20043;-72
2022/08/21 18:50:46;;;;;;;3.10;1.98;;;23.00;61.30;;;;;;4931470;29;20095;-72
2022/08/21 18:53:13;;;;;;;3.15;1.70;;;23.00;61.60;;;;;;4932435;29;20020;-72
2022/08/21 18:55:40;;;;;;;6.57;1.48;;;22.90;61.70;;;;;;4931606;29;20115;-74
2022/08/21 18:58:06;;;;;;;4.35;1.58;;;22.90;61.70;;;;;;4932276;29;20433;-76
2022/08/21 19:00:36;;;;;;;6.55;2.35;;;22.80;61.80;;;;;;4931097;29;20027;-75
2022/08/21 19:03:03;;;;;;;4.13;1.70;;;22.80;62.00;;;;;;4933104;29;20024;-76
2022/08/21 19:05:29;;;;;;;4.50;1.70;;;22.70;62.00;;;;;;4931499;29;20100;-75
2022/08/21 19:07:55;;;;;;;4.95;1.58;;;22.70;62.40;;;;;;4931400;29;20035;-75
2022/08/21 19:10:21;;;;;;;3.47;1.77;;;22.60;62.70;;;;;;4932009;29;20042;-75
2022/08/21 19:12:47;;;;;;;5.03;1.60;;;22.60;62.80;;;;;;4931787;29;20032;-75
2022/08/21 19:15:16;;;;;;;8.15;2.22;;;22.50;62.90;;;;;;4930428;29;20079;-74
2022/08/21 19:17:44;;;;;;;4.68;1.70;;;22.50;63.10;;;;;;4930491;29;20369;-74
2022/08/21 19:20:13;;;;;;;3.72;1.48;;;22.40;63.30;;;;;;4932149;29;20031;-75
2022/08/21 19:22:39;;;;;;;3.97;1.65;;;22.40;63.50;;;;;;4929980;29;20031;-75
2022/08/21 19:25:06;;;;;;;4.45;1.88;;;22.40;63.70;;;;;;4932108;29;20032;-75
2022/08/21 19:27:32;;;;;;;7.47;1.77;;;22.30;63.70;;;;;;4944797;23;20087;-71
2022/08/21 19:29:58;;;;;;;5.32;2.15;;;22.20;63.90;;;;;;4934953;28;20041;-72
2022/08/21 19:32:24;;;;;;;7.95;3.00;;;22.20;63.80;;;;;;4936241;29;20043;-75
2022/08/21 19:34:50;;;;;;;6.60;2.38;;;22.20;63.90;;;;;;4937708;29;20024;-73
2022/08/21 19:37:15;;;;;;;5.18;2.05;;;22.20;64.10;;;;;;4938619;28;20087;-73
2022/08/21 19:39:42;;;;;;;6.25;2.55;;;22.10;64.00;;;;;;4922645;29;20404;-72
2022/08/21 19:42:08;;;;;;;2.80;1.65;;;22.10;64.80;;;;;;4922312;29;20481;-71
2022/08/21 19:44:35;;;;;;;4.13;1.58;;;22.00;64.40;;;;;;4921661;29;20039;-73
2022/08/21 19:47:00;;;;;;;4.75;1.45;;;22.00;64.60;;;;;;4922005;29;20039;-73
2022/08/21 19:49:30;;;;;;;4.75;1.60;;;21.90;64.80;;;;;;4919257;29;20036;-72
2022/08/21 19:51:55;;;;;;;5.13;2.03;;;21.90;65.20;;;;;;4923247;29;20028;-72
2022/08/21 19:54:24;;;;;;;4.47;2.00;;;21.80;65.30;;;;;;4920682;29;20128;-71
2022/08/21 19:56:51;;;;;;;4.38;2.25;;;21.80;65.40;;;;;;4923111;29;20027;-72
2022/08/21 19:59:18;;;;;;;4.55;1.98;;;21.70;65.60;;;;;;4920057;29;20027;-72
2022/08/21 20:01:44;;;;;;;8.73;2.97;;;21.70;65.80;;;;;;4916317;29;20027;-72
2022/08/21 20:04:10;;;;;;;11.73;4.88;;;21.70;66.30;;;;;;4920699;29;20036;-72
2022/08/21 20:06:36;;;;;;;7.20;4.28;;;21.70;66.70;;;;;;4922259;29;20477;-72
2022/08/21 20:09:02;;;;;;;10.52;5.88;;;21.70;67.00;;;;;;4920534;29;20024;-72
2022/08/21 20:11:33;;;;;;;9.60;5.18;;;21.60;67.40;;;;;;4921788;29;20555;-72
2022/08/21 20:13:59;;;;;;;6.88;4.47;;;21.60;67.70;;;;;;4919987;29;20378;-71
2022/08/21 20:16:25;;;;;;;7.80;4.93;;;21.60;67.80;;;;;;4921468;29;20127;-71
2022/08/21 20:18:50;;;;;;;5.32;4.38;;;21.50;68.50;;;;;;4917221;29;20127;-71
2022/08/21 20:21:17;;;;;;;8.55;3.47;;;21.50;68.90;;;;;;4920676;29;20540;-72
2022/08/21 20:23:42;;;;;;;7.35;3.10;;;21.40;69.10;;;;;;4922353;29;20032;-72
2022/08/21 20:26:08;;;;;;;5.03;3.22;;;21.40;69.20;;;;;;4921532;29;20070;-71
2022/08/21 20:28:35;;;;;;;8.40;3.38;;;21.40;69.80;;;;;;4918407;29;20039;-71
2022/08/21 20:31:01;;;;;;;3.90;2.45;;;21.40;69.80;;;;;;4918626;29;20043;-72
2022/08/21 20:33:26;;;;;;;6.85;3.67;;;21.30;69.70;;;;;;4921082;29;20024;-78
2022/08/21 20:35:52;;;;;;;8.25;4.03;;;21.30;70.60;;;;;;4915656;29;20028;-77
2022/08/21 20:38:19;;;;;;;9.70;4.40;;;21.50;70.90;;;;;;4922800;29;20060;-78
2022/08/21 20:40:49;;;;;;;5.85;3.00;;;21.60;71.20;;;;;;4920095;29;20110;-78
2022/08/21 20:43:16;;;;;;;4.75;3.00;;;21.80;71.00;;;;;;4921423;29;20473;-79
2022/08/21 20:45:42;;;;;;;6.03;3.17;;;21.80;70.50;;;;;;4919617;29;20032;-79
2022/08/21 20:48:27;;;;;;;4.68;3.58;;;21.90;70.50;;;;;;4918502;29;20082;-78
2022/08/21 20:51:04;;;;;;;11.10;3.95;;;21.90;70.50;;;;;;4920551;29;20027;-79
2022/08/21 20:53:42;;;;;;;7.18;3.70;;;21.90;70.60;;;;;;4923422;29;20100;-78
2022/08/21 20:56:13;;;;;;;8.05;4.45;;;21.90;70.40;;;;;;4920997;29;20653;-78
2022/08/21 20:58:53;;;;;;;6.32;3.20;;;21.90;70.60;;;;;;4916295;29;20024;-76
2022/08/21 21:01:19;;;;;;;7.57;2.95;;;21.90;70.60;;;;;;4921368;29;20444;-76
2022/08/21 21:04:07;;;;;;;7.88;3.33;;;21.90;70.80;;;;;;4921764;29;20032;-76
2022/08/21 21:06:34;;;;;;;4.35;2.22;;;21.80;70.80;;;;;;4921208;29;20034;-76
2022/08/21 21:09:29;;;;;;;8.20;3.58;;;21.80;71.10;;;;;;4922149;29;20031;-76
2022/08/21 21:11:58;;;;;;;6.32;2.83;;;21.80;71.10;;;;;;4920840;29;20024;-77
2022/08/21 21:14:37;;;;;;;6.45;3.47;;;21.80;71.20;;;;;;4917742;29;20086;-76
2022/08/21 21:17:06;;;;;;;5.30;2.65;;;21.70;71.10;;;;;;4918848;29;20154;-76
2022/08/21 21:19:54;;;;;;;5.30;2.33;;;21.70;71.20;;;;;;4917621;29;20035;-76
2022/08/21 21:22:33;;;;;;;7.60;2.47;;;21.70;71.50;;;;;;4921419;29;20373;-74
2022/08/21 21:25:21;;;;;;;3.45;3.15;;;21.70;71.50;;;;;;4921209;29;20501;-76
2022/08/21 21:27:57;;;;;;;6.63;3.35;;;21.60;71.60;;;;;;4922302;29;20032;-76
2022/08/21 21:30:29;;;;;;;9.95;4.75;;;21.60;71.80;;;;;;4918686;29;20508;-77
2022/08/21 21:32:55;;;;;;;6.13;3.70;;;21.60;72.10;;;;;;4921961;29;20040;-76
2022/08/21 21:35:27;;;;;;;9.10;4.63;;;21.50;72.20;;;;;;4922971;29;20028;-77
2022/08/21 21:38:00;;;;;;;7.35;4.53;;;21.50;72.30;;;;;;4924363;29;20027;-76
2022/08/21 21:41:22;;;;;;;9.65;4.78;;;21.40;72.40;;;;;;4923542;29;20334;-78
2022/08/21 21:43:56;;;;;;;7.78;4.07;;;21.30;72.80;;;;;;4909289;29;20103;-77
2022/08/21 21:46:55;;;;;;;7.60;4.15;;;21.30;73.00;;;;;;4922015;29;20032;-76
2022/08/21 21:49:34;;;;;;;11.10;4.78;;;21.30;73.50;;;;;;4920147;29;20139;-76
2022/08/21 21:52:09;;;;;;;5.63;3.80;;;21.20;73.80;;;;;;4925829;29;20035;-76
2022/08/21 21:55:07;;;;;;;3.80;3.28;;;21.10;73.70;;;;;;4923565;29;20082;-75
2022/08/21 21:57:52;;;;;;;5.03;3.03;;;21.00;73.70;;;;;;4925193;29;20033;-76
2022/08/21 22:00:23;;;;;;;5.10;3.85;;;21.00;73.90;;;;;;4923923;29;20126;-77
2022/08/21 22:03:24;;;;;;;4.45;3.33;;;20.90;73.80;;;;;;4925333;29;20111;-77
2022/08/21 22:06:10;;;;;;;6.18;3.35;;;20.80;73.90;;;;;;4924132;29;20153;-77
2022/08/21 22:08:51;;;;;;;7.35;3.85;;;20.80;74.10;;;;;;4924416;29;20036;-76
2022/08/21 22:11:50;;;;;;;7.78;4.03;;;20.80;74.10;;;;;;4925242;29;20044;-75
2022/08/21 22:14:17;;;;;;;6.07;4.07;;;20.70;73.90;;;;;;4922900;29;20378;-76
2022/08/21 22:16:45;;;;;;;5.45;3.70;;;20.40;74.50;;;;;;4920866;29;20036;-76
2022/08/21 22:19:24;;;;;;;8.40;4.88;;;20.40;75.30;;;;;;4919889;29;20148;-76
2022/08/21 22:22:02;;;;;;;9.75;3.90;;;20.30;75.20;;;;;;4919456;29;20136;-76
2022/08/21 22:24:34;;;;;;;6.75;3.90;;;20.10;75.30;;;;;;4924735;29;20063;-76
2022/08/21 22:27:05;;;;;;;5.60;2.72;;;20.00;75.80;;;;;;4923474;29;20024;-76
2022/08/21 22:29:47;;;;;;;9.02;4.72;;;19.80;76.30;;;;;;4923385;29;20050;-75
2022/08/21 22:32:25;;;;;;;7.88;4.45;;;19.70;77.00;;;;;;4921821;29;20491;-76
2022/08/21 22:35:00;;;;;;;7.40;4.60;;;19.70;76.60;;;;;;4923026;29;20491;-77
2022/08/21 22:37:33;;;;;;;6.25;4.20;;;19.50;76.90;;;;;;4922862;29;20381;-75
2022/08/21 22:39:59;;;;;;;9.35;3.85;;;19.40;76.90;;;;;;4923435;29;20058;-75
2022/08/21 22:42:26;;;;;;;6.95;3.60;;;19.40;77.90;;;;;;4922212;29;20516;-76
2022/08/21 22:44:57;;;;;;;5.78;4.30;;;19.40;78.10;;;;;;4919826;29;20119;-76
2022/08/21 22:47:33;;;;;;;7.60;4.97;;;19.40;78.10;;;;;;4924122;29;20036;-75
2022/08/21 22:50:01;;;;;;;6.47;3.53;;;19.40;79.00;;;;;;4922506;29;20031;-77
2022/08/21 22:52:34;;;;;;;11.45;3.85;;;19.40;79.30;;;;;;4922533;29;20063;-76
2022/08/21 22:55:20;;;;;;;6.72;3.67;;;19.30;79.60;;;;;;4921460;29;20108;-77
2022/08/21 22:57:45;;;;;;;7.38;3.35;;;19.20;79.90;;;;;;4920651;29;20032;-76
2022/08/21 23:00:13;;;;;;;6.88;3.17;;;19.20;80.10;;;;;;4921618;29;20043;-76
2022/08/21 23:02:50;;;;;;;8.68;3.47;;;19.40;80.10;;;;;;4922727;29;20071;-76
2022/08/21 23:05:27;;;;;;;7.78;4.88;;;19.50;80.10;;;;;;4923368;29;20408;-76
2022/08/21 23:07:54;;;;;;;5.32;3.38;;;19.60;80.40;;;;;;4921518;29;20406;-76
2022/08/21 23:10:39;;;;;;;6.10;4.38;;;19.50;80.20;;;;;;4922732;29;20103;-75
2022/08/21 23:13:12;;;;;;;4.70;3.08;;;19.60;80.30;;;;;;4919761;29;20462;-76
2022/08/21 23:16:28;;;;;;;3.90;3.03;;;19.50;80.20;;;;;;4921644;29;20032;-76
2022/08/21 23:19:32;;;;;;;8.95;4.00;;;19.50;80.20;;;;;;4924029;29;20030;-76
2022/08/21 23:22:34;;;;;;;4.53;3.70;;;19.30;80.10;;;;;;4922299;29;20063;-75
2022/08/21 23:25:29;;;;;;;8.50;3.35;;;19.10;80.70;;;;;;4921594;29;20051;-75
2022/08/21 23:28:22;;;;;;;8.45;3.95;;;19.10;81.20;;;;;;4921578;29;20035;-75
2022/08/21 23:31:15;;;;;;;7.50;4.55;;;19.10;81.80;;;;;;4920104;29;20111;-75
2022/08/21 23:34:00;;;;;;;5.50;3.00;;;19.20;81.50;;;;;;4923486;29;20464;-75
2022/08/21 23:39:51;;;;;;;6.20;3.22;;;19.30;81.80;;;;;;4922834;29;20083;-75
2022/08/21 23:42:37;;;;;;;9.82;4.20;;;19.30;82.10;;;;;;4921765;29;20028;-75
2022/08/21 23:45:26;;;;;;;4.70;3.25;;;19.10;82.40;;;;;;4919060;29;20023;-75
2022/08/21 23:48:08;;;;;;;5.35;2.92;;;18.90;83.50;;;;;;4922902;29;20035;-76
2022/08/21 23:50:59;;;;;;;5.32;3.03;;;18.80;83.70;;;;;;4923191;29;20036;-75
2022/08/21 23:53:42;;;;;;;13.90;3.95;;;18.80;84.50;;;;;;4920857;29;20433;-75
2022/08/21 23:56:19;;;;;;;5.75;3.05;;;18.80;84.30;;;;;;4922454;29;20032;-75
2022/08/21 23:59:18;;;;;;;5.13;2.83;;;19.00;84.20;;;;;;4922060;29;20059;-75
